Time;durP1;ratioP1;P1;durP2;ratioP2;P2;SDS_P1;SDS_P2;PMS_P1;PMS_P2;Temp;Humidity;BMP_temperature;BMP_pressure;BME280_temperature;BME280_humidity;BME280_pressure;Samples;Min_cycle;Max_cycle;Signal;HPM_P1;HPM_P2
2021/10/29 00:00:54;;;;;;;19.20;15.80;;;11.90;88.30;;;;;;5073099;28;20494;-68
2021/10/29 00:03:22;;;;;;;22.40;19.43;;;11.90;88.00;;;;;;5073088;28;20488;-68
2021/10/29 00:05:49;;;;;;;20.93;16.27;;;12.00;87.70;;;;;;5073075;28;20441;-68
2021/10/29 00:08:16;;;;;;;19.33;16.30;;;11.90;87.50;;;;;;5073375;28;20440;-68
2021/10/29 00:10:42;;;;;;;21.77;17.00;;;12.00;87.60;;;;;;5073035;28;20461;-68
2021/10/29 00:13:09;;;;;;;17.07;15.10;;;12.00;87.60;;;;;;5073579;28;20437;-68
2021/10/29 00:15:38;;;;;;;17.27;14.83;;;12.00;87.30;;;;;;5073012;28;20445;-69
2021/10/29 00:18:06;;;;;;;17.70;15.50;;;12.00;87.20;;;;;;5073055;28;20433;-69
2021/10/29 00:20:33;;;;;;;19.97;16.40;;;12.00;87.10;;;;;;5072966;28;20467;-69
2021/10/29 00:23:00;;;;;;;17.67;15.60;;;12.10;87.10;;;;;;5072889;28;20472;-69
2021/10/29 00:25:27;;;;;;;18.80;16.00;;;12.10;86.90;;;;;;5072898;28;20535;-69
2021/10/29 00:27:54;;;;;;;17.13;14.90;;;12.10;86.90;;;;;;5072880;28;20453;-69
2021/10/29 00:30:21;;;;;;;19.93;16.33;;;12.10;86.80;;;;;;5072736;28;20468;-69
2021/10/29 00:32:48;;;;;;;20.60;16.50;;;12.10;86.70;;;;;;5072882;28;20440;-69
2021/10/29 00:35:17;;;;;;;20.23;16.07;;;12.10;86.50;;;;;;5072951;28;20433;-69
2021/10/29 00:37:43;;;;;;;17.87;15.90;;;12.10;86.50;;;;;;5073764;28;20441;-69
2021/10/29 00:40:13;;;;;;;19.23;17.10;;;12.10;86.50;;;;;;5076335;28;20559;-69
2021/10/29 00:42:41;;;;;;;22.07;17.17;;;12.10;86.40;;;;;;5076321;28;20485;-69
2021/10/29 00:45:10;;;;;;;17.10;15.30;;;12.10;86.50;;;;;;5076352;28;20785;-69
2021/10/29 00:47:36;;;;;;;22.47;15.37;;;12.10;86.40;;;;;;5076381;28;20448;-69
2021/10/29 00:50:04;;;;;;;18.40;15.40;;;12.10;86.50;;;;;;5076249;28;20421;-69
2021/10/29 00:52:32;;;;;;;18.10;15.40;;;12.10;86.50;;;;;;5076239;28;20448;-68
2021/10/29 00:55:00;;;;;;;17.73;15.63;;;12.10;86.50;;;;;;5076230;28;20514;-68
2021/10/29 00:57:27;;;;;;;19.80;15.90;;;12.10;86.60;;;;;;5076201;28;20452;-68
2021/10/29 00:59:53;;;;;;;18.60;15.97;;;12.10;86.60;;;;;;5076251;28;20441;-68
2021/10/29 01:02:20;;;;;;;16.53;14.83;;;12.10;86.60;;;;;;5075986;28;20445;-68
2021/10/29 01:04:48;;;;;;;18.83;15.67;;;12.10;86.80;;;;;;5076073;28;20433;-68
2021/10/29 01:07:15;;;;;;;17.47;14.57;;;12.10;86.90;;;;;;5075573;28;20445;-68
2021/10/29 01:09:43;;;;;;;16.10;14.10;;;12.10;86.90;;;;;;5075780;28;20451;-69
2021/10/29 01:12:10;;;;;;;19.23;17.03;;;12.10;87.10;;;;;;5075965;28;20460;-69
2021/10/29 01:14:36;;;;;;;18.47;15.20;;;12.10;87.10;;;;;;5076224;28;20469;-69
2021/10/29 01:17:04;;;;;;;18.30;14.50;;;12.10;87.10;;;;;;5076225;28;20444;-69
2021/10/29 01:19:33;;;;;;;20.30;16.73;;;12.10;87.10;;;;;;5075956;28;20441;-69
2021/10/29 01:22:02;;;;;;;18.40;14.67;;;12.10;87.10;;;;;;5075891;28;20468;-69
2021/10/29 01:24:29;;;;;;;19.17;15.70;;;12.10;87.10;;;;;;5075376;28;20468;-70
2021/10/29 01:26:55;;;;;;;21.07;15.97;;;12.10;87.10;;;;;;5075217;28;20445;-69
2021/10/29 01:29:22;;;;;;;22.97;17.30;;;12.10;87.00;;;;;;5075503;28;20483;-69
2021/10/29 01:31:49;;;;;;;18.97;16.40;;;12.10;87.00;;;;;;5075270;28;20460;-69
2021/10/29 01:34:15;;;;;;;20.57;16.40;;;12.10;87.10;;;;;;5076038;28;20418;-69
2021/10/29 01:36:43;;;;;;;18.77;15.70;;;12.10;87.00;;;;;;5075489;28;20448;-69
2021/10/29 01:39:15;;;;;;;19.23;15.60;;;12.00;86.90;;;;;;5075366;28;20444;-69
2021/10/29 01:41:42;;;;;;;18.70;14.67;;;12.00;86.90;;;;;;5075325;28;20514;-69
2021/10/29 01:44:09;;;;;;;19.33;14.30;;;12.00;86.80;;;;;;5075229;28;20480;-69
2021/10/29 01:46:36;;;;;;;18.87;16.37;;;12.00;86.80;;;;;;5075277;28;20445;-69
2021/10/29 01:49:03;;;;;;;18.67;14.23;;;12.00;86.80;;;;;;5075199;28;20433;-69
2021/10/29 01:51:30;;;;;;;16.50;14.67;;;12.00;86.80;;;;;;5075168;28;20469;-69
2021/10/29 01:53:58;;;;;;;18.43;15.67;;;11.90;86.60;;;;;;5075114;28;20436;-69
2021/10/29 01:56:26;;;;;;;17.00;15.20;;;12.00;86.80;;;;;;5074967;28;20812;-69
2021/10/29 01:58:53;;;;;;;18.17;14.37;;;11.90;86.70;;;;;;5074978;28;20448;-69
2021/10/29 02:01:20;;;;;;;22.20;16.47;;;11.90;86.80;;;;;;5074835;28;20491;-69
2021/10/29 02:03:47;;;;;;;18.53;15.60;;;11.90;87.10;;;;;;5074777;28;20479;-69
2021/10/29 02:06:14;;;;;;;21.50;16.40;;;11.90;87.20;;;;;;5074788;28;20441;-69
2021/10/29 02:08:41;;;;;;;20.00;14.90;;;11.90;87.40;;;;;;5074723;28;20447;-69
2021/10/29 02:11:08;;;;;;;20.10;16.73;;;11.90;87.50;;;;;;5074651;28;20500;-69
2021/10/29 02:13:36;;;;;;;19.63;15.47;;;11.90;87.70;;;;;;5074624;28;20445;-69
2021/10/29 02:16:03;;;;;;;18.27;15.10;;;11.80;87.70;;;;;;5074822;28;20440;-69
2021/10/29 02:18:30;;;;;;;20.73;16.23;;;11.80;87.90;;;;;;5074537;28;20452;-69
2021/10/29 02:20:58;;;;;;;18.90;15.17;;;11.80;87.90;;;;;;5074462;28;20518;-69
2021/10/29 02:23:24;;;;;;;23.10;16.83;;;11.80;88.00;;;;;;5074600;28;20476;-69
2021/10/29 02:25:51;;;;;;;20.03;15.37;;;11.80;88.10;;;;;;5074435;28;20445;-69
2021/10/29 02:28:20;;;;;;;20.67;16.23;;;11.80;88.10;;;;;;5074422;28;20429;-69
2021/10/29 02:30:49;;;;;;;21.27;16.63;;;11.70;88.10;;;;;;5073844;28;20483;-69
2021/10/29 02:33:17;;;;;;;19.43;16.53;;;11.80;88.30;;;;;;5074528;28;20436;-69
2021/10/29 02:35:44;;;;;;;20.67;15.97;;;11.70;88.20;;;;;;5074266;28;20451;-69
2021/10/29 02:38:11;;;;;;;17.30;15.50;;;11.70;88.20;;;;;;5074195;28;20814;-69
2021/10/29 02:40:38;;;;;;;17.27;14.77;;;11.70;88.20;;;;;;5074052;28;20548;-69
2021/10/29 02:43:05;;;;;;;19.33;15.30;;;11.70;88.20;;;;;;5074022;28;20484;-69
2021/10/29 02:45:32;;;;;;;20.53;15.73;;;11.70;88.20;;;;;;5073755;28;20957;-69
2021/10/29 02:48:00;;;;;;;18.47;15.80;;;11.70;88.20;;;;;;5074062;28;20425;-69
2021/10/29 02:50:27;;;;;;;17.00;15.20;;;11.70;88.20;;;;;;5073933;28;20460;-69
2021/10/29 02:52:54;;;;;;;17.23;14.50;;;11.70;88.20;;;;;;5073644;28;20957;-69
2021/10/29 02:55:21;;;;;;;17.63;15.70;;;11.60;88.20;;;;;;5073918;28;20787;-69
2021/10/29 02:57:47;;;;;;;15.60;13.73;;;11.70;88.20;;;;;;5074173;28;20436;-69
2021/10/29 03:00:16;;;;;;;16.97;13.70;;;11.70;88.30;;;;;;5073371;28;20841;-69
2021/10/29 03:02:44;;;;;;;16.40;14.20;;;11.70;88.20;;;;;;5073862;28;20440;-69
2021/10/29 03:05:14;;;;;;;20.33;15.20;;;11.70;88.20;;;;;;5073350;28;21008;-69
2021/10/29 03:07:41;;;;;;;16.57;13.83;;;11.70;88.20;;;;;;5073764;28;20451;-69
2021/10/29 03:10:09;;;;;;;18.07;13.53;;;11.70;88.10;;;;;;5073600;28;20469;-69
2021/10/29 03:12:37;;;;;;;16.70;14.33;;;11.70;88.20;;;;;;5073657;28;20457;-69
2021/10/29 03:15:05;;;;;;;18.90;15.27;;;11.60;88.50;;;;;;5073652;28;20444;-69
2021/10/29 03:17:32;;;;;;;17.20;13.30;;;11.60;88.80;;;;;;5073606;28;20789;-69
2021/10/29 03:19:59;;;;;;;18.63;14.73;;;11.60;89.10;;;;;;5073180;28;20444;-69
2021/10/29 03:22:27;;;;;;;19.53;15.93;;;11.50;89.30;;;;;;5073600;28;20445;-69
2021/10/29 03:24:54;;;;;;;20.20;16.00;;;11.50;89.70;;;;;;5073490;28;20477;-69
2021/10/29 03:27:21;;;;;;;20.20;15.90;;;11.40;89.80;;;;;;5073528;28;20448;-69
2021/10/29 03:29:48;;;;;;;17.70;15.00;;;11.40;90.00;;;;;;5073292;28;20507;-69
2021/10/29 03:32:17;;;;;;;21.93;17.07;;;11.40;90.00;;;;;;5073467;28;20499;-69
2021/10/29 03:34:44;;;;;;;20.07;15.97;;;11.40;90.10;;;;;;5073149;28;20793;-69
2021/10/29 03:37:21;;;;;;;16.90;14.63;;;11.30;90.10;;;;;;5073433;28;20451;-69
2021/10/29 03:39:53;;;;;;;22.37;15.50;;;11.30;90.10;;;;;;5073352;28;20512;-69
2021/10/29 03:42:25;;;;;;;20.00;15.97;;;11.40;90.10;;;;;;5073072;28;20902;-69
2021/10/29 03:44:56;;;;;;;18.20;15.27;;;11.40;90.10;;;;;;5073286;28;20500;-69
2021/10/29 03:47:23;;;;;;;21.23;15.23;;;11.30;90.20;;;;;;5073338;28;20467;-69
2021/10/29 03:49:52;;;;;;;20.70;15.07;;;11.30;90.20;;;;;;5073235;28;20448;-69
2021/10/29 03:52:24;;;;;;;21.17;15.23;;;11.30;90.30;;;;;;5073294;28;20520;-69
2021/10/29 03:54:54;;;;;;;20.70;16.73;;;11.30;90.20;;;;;;5073505;28;20440;-69
2021/10/29 03:57:25;;;;;;;18.67;16.00;;;11.30;90.20;;;;;;5073213;28;20440;-69
2021/10/29 03:59:53;;;;;;;18.33;14.60;;;11.40;90.20;;;;;;5072864;28;20437;-69
2021/10/29 04:02:20;;;;;;;19.47;15.80;;;11.40;90.10;;;;;;5073153;28;20535;-69
2021/10/29 04:04:48;;;;;;;20.50;16.67;;;11.40;90.00;;;;;;5073182;28;20559;-69
2021/10/29 04:07:15;;;;;;;18.10;14.33;;;11.40;90.00;;;;;;5072766;28;20945;-69
2021/10/29 04:09:43;;;;;;;21.10;15.63;;;11.40;90.00;;;;;;5072809;28;20844;-69
2021/10/29 04:12:12;;;;;;;18.93;14.63;;;11.40;89.90;;;;;;5073130;28;20476;-69
2021/10/29 04:14:42;;;;;;;20.37;15.83;;;11.40;89.70;;;;;;5076919;28;20569;-69
2021/10/29 04:17:08;;;;;;;20.73;14.60;;;11.40;89.70;;;;;;5076809;28;20995;-69
2021/10/29 04:19:35;;;;;;;21.00;16.60;;;11.40;89.70;;;;;;5076789;28;20508;-69
2021/10/29 04:22:02;;;;;;;18.67;14.53;;;11.40;89.80;;;;;;5076646;28;20464;-68
2021/10/29 04:24:29;;;;;;;19.77;14.97;;;11.40;89.90;;;;;;5076569;28;20491;-69
2021/10/29 04:26:58;;;;;;;19.73;16.60;;;11.40;89.90;;;;;;5076673;28;20455;-69
2021/10/29 04:29:29;;;;;;;22.27;16.60;;;11.40;90.00;;;;;;5076645;28;20457;-69
2021/10/29 04:31:56;;;;;;;25.40;17.40;;;11.40;89.80;;;;;;5076329;28;20472;-69
2021/10/29 04:34:24;;;;;;;19.27;14.37;;;11.40;89.70;;;;;;5076490;28;20436;-69
2021/10/29 04:36:53;;;;;;;21.20;18.20;;;11.40;89.60;;;;;;5076434;28;20453;-69
2021/10/29 04:39:21;;;;;;;17.30;13.87;;;11.40;89.60;;;;;;5076542;28;20444;-69
2021/10/29 04:41:50;;;;;;;16.83;14.37;;;11.40;89.50;;;;;;5076452;28;20475;-70
2021/10/29 04:44:18;;;;;;;21.80;15.27;;;11.40;89.40;;;;;;5076739;28;20472;-70
2021/10/29 04:46:47;;;;;;;17.50;14.37;;;11.40;89.60;;;;;;5076146;28;20439;-70
2021/10/29 04:49:13;;;;;;;19.90;15.23;;;11.40;89.60;;;;;;5076253;28;20448;-70
2021/10/29 04:51:40;;;;;;;21.07;16.03;;;11.40;89.50;;;;;;5076339;28;20533;-70
2021/10/29 04:54:08;;;;;;;20.23;15.93;;;11.40;89.40;;;;;;5076163;28;20930;-70
2021/10/29 04:56:35;;;;;;;24.37;15.63;;;11.40;89.40;;;;;;5076206;28;20452;-70
2021/10/29 04:59:01;;;;;;;21.10;15.60;;;11.40;89.40;;;;;;5076163;28;20502;-70
2021/10/29 05:01:28;;;;;;;20.23;14.10;;;11.40;89.40;;;;;;5075748;28;20547;-70
2021/10/29 05:03:56;;;;;;;16.40;14.03;;;11.40;89.40;;;;;;5075996;28;20847;-70
2021/10/29 05:06:23;;;;;;;15.90;14.10;;;11.30;89.30;;;;;;5076598;28;20436;-70
2021/10/29 05:08:50;;;;;;;17.90;15.00;;;11.40;89.40;;;;;;5076006;28;20452;-70
2021/10/29 05:11:16;;;;;;;19.50;14.57;;;11.40;89.40;;;;;;5076141;28;20468;-70
2021/10/29 05:13:43;;;;;;;20.73;14.77;;;11.40;89.20;;;;;;5075686;28;20452;-70
2021/10/29 05:16:11;;;;;;;17.90;14.53;;;11.30;89.20;;;;;;5075790;28;20444;-70
2021/10/29 05:18:37;;;;;;;19.73;14.73;;;11.30;89.30;;;;;;5075719;28;20961;-70
2021/10/29 05:21:05;;;;;;;17.20;12.63;;;11.30;89.30;;;;;;5075613;28;20468;-70
2021/10/29 05:23:32;;;;;;;16.20;13.07;;;11.30;89.30;;;;;;5075016;28;20977;-70
2021/10/29 05:25:59;;;;;;;15.80;13.00;;;11.40;89.30;;;;;;5075287;28;20464;-70
2021/10/29 05:28:25;;;;;;;15.40;13.10;;;11.40;89.20;;;;;;5076187;28;20467;-70
2021/10/29 05:30:52;;;;;;;16.30;14.00;;;11.30;88.90;;;;;;5076279;28;20484;-70
2021/10/29 05:33:19;;;;;;;18.10;13.20;;;11.40;88.80;;;;;;5076354;28;20452;-70
2021/10/29 05:35:46;;;;;;;18.30;13.27;;;11.30;88.50;;;;;;5075483;28;20447;-70
2021/10/29 05:38:14;;;;;;;15.73;12.83;;;11.30;88.30;;;;;;5075426;28;20535;-70
2021/10/29 05:40:41;;;;;;;20.43;13.43;;;11.30;88.40;;;;;;5075282;28;20472;-70
2021/10/29 05:43:08;;;;;;;16.13;13.10;;;11.30;88.50;;;;;;5075879;28;20444;-70
2021/10/29 05:45:35;;;;;;;18.30;14.10;;;11.30;88.70;;;;;;5075185;28;20468;-70
2021/10/29 05:48:04;;;;;;;17.87;12.60;;;11.30;88.70;;;;;;5075143;28;20444;-69
2021/10/29 05:50:31;;;;;;;16.23;12.80;;;11.30;88.50;;;;;;5075059;28;20564;-69
2021/10/29 05:53:01;;;;;;;15.53;13.00;;;11.30;88.50;;;;;;5075229;28;20441;-70
2021/10/29 05:55:30;;;;;;;18.63;14.10;;;11.30;88.50;;;;;;5075170;28;20444;-70
2021/10/29 05:57:57;;;;;;;19.13;13.97;;;11.30;88.50;;;;;;5075136;28;20444;-69
2021/10/29 06:00:26;;;;;;;17.63;13.30;;;11.30;88.50;;;;;;5074825;28;20469;-70
2021/10/29 06:02:53;;;;;;;16.87;13.10;;;11.30;88.60;;;;;;5075143;28;20539;-70
2021/10/29 06:05:20;;;;;;;17.30;14.07;;;11.30;88.60;;;;;;5075022;28;20492;-70
2021/10/29 06:07:47;;;;;;;15.73;12.37;;;11.30;88.60;;;;;;5074766;28;20453;-70
2021/10/29 06:10:15;;;;;;;19.93;12.73;;;11.30;88.70;;;;;;5074690;28;20461;-70
2021/10/29 06:12:44;;;;;;;16.07;13.07;;;11.30;88.70;;;;;;5074745;28;20455;-70
2021/10/29 06:15:13;;;;;;;16.40;12.80;;;11.30;88.80;;;;;;5074583;28;20445;-70
2021/10/29 06:17:40;;;;;;;15.77;13.70;;;11.30;89.00;;;;;;5074832;28;20535;-70
2021/10/29 06:20:08;;;;;;;17.67;12.70;;;11.30;89.10;;;;;;5074646;28;20488;-70
2021/10/29 06:22:38;;;;;;;16.17;13.10;;;11.30;89.10;;;;;;5074676;28;20433;-70
2021/10/29 06:25:10;;;;;;;21.13;15.87;;;11.40;89.10;;;;;;5074521;28;20484;-70
2021/10/29 06:30:19;;;;;;;20.07;16.67;;;11.30;89.20;;;;;;5056806;28;20456;-70
2021/10/29 06:32:46;;;;;;;26.07;17.97;;;11.30;89.50;;;;;;5074354;28;20436;-70
2021/10/29 06:35:13;;;;;;;24.33;17.87;;;11.30;89.80;;;;;;5073414;28;20914;-70
2021/10/29 06:37:41;;;;;;;25.67;18.23;;;11.20;89.90;;;;;;5074288;28;20453;-70
2021/10/29 06:40:12;;;;;;;23.70;16.37;;;11.20;90.00;;;;;;5073860;28;20464;-70
2021/10/29 06:42:40;;;;;;;21.37;16.27;;;11.20;90.20;;;;;;5074403;28;20452;-70
2021/10/29 06:45:19;;;;;;;23.83;17.40;;;11.20;90.20;;;;;;5074095;28;20563;-70
2021/10/29 06:47:51;;;;;;;21.23;15.60;;;11.10;90.20;;;;;;5074074;28;20460;-70
2021/10/29 07:01:21;;;;;;;25.80;16.73;;;11.20;90.20;;;;;;5073815;28;20444;-70
2021/10/29 07:12:25;;;;;;;23.10;16.63;;;11.20;90.20;;;;;;5073831;28;20444;-70
2021/10/29 07:40:00;;;;;;;22.50;17.10;;;11.30;90.10;;;;;;5073601;28;20763;-69
2021/10/29 07:42:30;;;;;;;21.57;16.27;;;11.40;90.10;;;;;;5073148;28;20946;-69
2021/10/29 07:44:57;;;;;;;22.40;17.63;;;11.40;90.10;;;;;;5073486;28;20491;-69
2021/10/29 07:47:24;;;;;;;26.27;17.87;;;11.50;90.10;;;;;;5075966;28;20811;-69
2021/10/29 07:49:51;;;;;;;22.97;16.70;;;11.50;90.00;;;;;;5077574;28;20445;-70
2021/10/29 07:52:19;;;;;;;23.67;15.60;;;11.60;90.00;;;;;;5077439;28;20440;-69
2021/10/29 07:54:45;;;;;;;27.70;17.27;;;11.60;89.80;;;;;;5077560;28;20444;-69
2021/10/29 07:57:12;;;;;;;24.60;17.47;;;11.70;89.70;;;;;;5077388;28;20535;-70
2021/10/29 07:59:40;;;;;;;23.97;17.07;;;11.70;89.50;;;;;;5077515;28;20482;-71
2021/10/29 08:02:07;;;;;;;25.67;15.83;;;11.80;89.30;;;;;;5077661;28;20631;-69
2021/10/29 08:04:34;;;;;;;20.23;15.23;;;11.80;89.10;;;;;;5077550;28;20472;-69
2021/10/29 08:07:01;;;;;;;19.80;15.10;;;11.80;89.00;;;;;;5077392;28;20440;-69
2021/10/29 08:09:30;;;;;;;20.57;16.57;;;11.90;88.90;;;;;;5077049;28;20451;-69
2021/10/29 08:11:57;;;;;;;21.20;15.33;;;11.90;88.70;;;;;;5077308;28;20491;-69
2021/10/29 08:14:24;;;;;;;21.33;15.63;;;12.00;88.60;;;;;;5077107;28;20448;-69
2021/10/29 08:16:51;;;;;;;19.83;15.57;;;12.00;88.50;;;;;;5077212;28;20778;-69
2021/10/29 08:19:23;;;;;;;21.10;15.90;;;12.00;88.70;;;;;;5076834;28;20474;-69
2021/10/29 08:21:50;;;;;;;17.07;14.60;;;12.00;88.60;;;;;;5076796;28;20472;-69
2021/10/29 08:24:17;;;;;;;18.07;14.23;;;12.00;88.60;;;;;;5076737;28;20447;-69
2021/10/29 08:26:45;;;;;;;19.20;15.53;;;12.10;88.70;;;;;;5076651;28;20469;-69
2021/10/29 08:29:12;;;;;;;19.90;14.40;;;12.10;88.60;;;;;;5076564;28;20432;-69
2021/10/29 08:31:39;;;;;;;21.83;15.10;;;12.10;88.30;;;;;;5076478;28;20852;-69
2021/10/29 08:34:05;;;;;;;20.53;14.40;;;12.20;88.40;;;;;;5076647;28;20428;-69
2021/10/29 08:36:33;;;;;;;15.40;12.57;;;12.20;88.20;;;;;;5076635;28;20790;-69
2021/10/29 08:38:59;;;;;;;18.90;14.20;;;12.30;87.90;;;;;;5076517;28;20798;-69
2021/10/29 08:41:28;;;;;;;18.17;14.63;;;12.30;87.70;;;;;;5076457;28;20833;-69
2021/10/29 08:43:56;;;;;;;17.87;14.53;;;12.40;87.50;;;;;;5076998;28;20444;-69
2021/10/29 08:46:23;;;;;;;20.33;15.53;;;12.40;87.40;;;;;;5076267;28;20508;-69
2021/10/29 08:48:51;;;;;;;14.90;12.43;;;12.50;87.30;;;;;;5076356;28;20455;-68
2021/10/29 08:51:19;;;;;;;18.27;13.83;;;12.50;87.00;;;;;;5076310;28;20471;-69
2021/10/29 08:53:46;;;;;;;19.07;14.23;;;12.60;86.90;;;;;;5076330;28;20448;-69
2021/10/29 08:56:13;;;;;;;15.17;12.50;;;12.70;86.70;;;;;;5075888;28;20817;-70
2021/10/29 08:59:10;;;;;;;17.90;13.93;;;12.70;86.20;;;;;;5075480;28;20437;-68
2021/10/29 09:01:59;;;;;;;18.60;14.97;;;12.80;86.20;;;;;;5076051;28;20551;-68
2021/10/29 09:04:38;;;;;;;14.77;12.80;;;12.80;86.10;;;;;;5076104;28;20429;-68
2021/10/29 09:10:10;;;;;;;14.27;12.47;;;13.10;85.80;;;;;;5068420;28;20793;-69
2021/10/29 09:32:22;;;;;;;15.43;11.77;;;14.00;83.40;;;;;;5075626;28;20439;-69
2021/10/29 09:35:04;;;;;;;17.73;12.60;;;14.10;83.10;;;;;;5075545;28;20840;-69
2021/10/29 09:37:36;;;;;;;16.93;11.80;;;14.20;82.70;;;;;;5075421;28;20453;-68
2021/10/29 09:40:09;;;;;;;18.60;12.73;;;14.30;82.30;;;;;;5075283;28;20852;-69
2021/10/29 09:42:37;;;;;;;15.30;12.00;;;14.40;81.90;;;;;;5075124;28;20532;-69
2021/10/29 09:45:15;;;;;;;14.40;11.90;;;14.50;81.80;;;;;;5075244;28;20492;-69
2021/10/29 09:47:49;;;;;;;14.70;10.27;;;14.60;81.60;;;;;;5075352;28;20425;-69
2021/10/29 09:50:25;;;;;;;12.00;10.20;;;14.70;81.20;;;;;;5075109;28;20563;-69
2021/10/29 09:53:09;;;;;;;12.03;10.50;;;14.80;81.30;;;;;;5074888;28;20432;-69
2021/10/29 09:55:49;;;;;;;16.00;11.40;;;14.90;81.40;;;;;;5074879;28;20890;-69
2021/10/29 09:58:18;;;;;;;12.67;10.30;;;15.00;80.80;;;;;;5075059;28;20798;-69
2021/10/29 10:00:45;;;;;;;13.20;11.13;;;15.20;80.10;;;;;;5074966;28;20465;-69
2021/10/29 10:03:16;;;;;;;14.17;11.87;;;15.30;79.10;;;;;;5074876;28;20444;-69
2021/10/29 10:05:44;;;;;;;14.40;11.03;;;15.40;78.80;;;;;;5074573;28;20461;-69
2021/10/29 10:08:12;;;;;;;15.03;11.20;;;15.60;78.90;;;;;;5074846;28;20440;-69
2021/10/29 10:10:43;;;;;;;11.67;9.63;;;15.80;78.60;;;;;;5073691;28;20530;-69
2021/10/29 10:13:11;;;;;;;15.20;10.60;;;15.90;77.50;;;;;;5074779;28;20831;-69
2021/10/29 10:15:38;;;;;;;11.03;9.87;;;16.10;76.80;;;;;;5074918;28;20443;-69
2021/10/29 10:18:05;;;;;;;13.50;10.90;;;16.20;75.90;;;;;;5074605;28;20814;-69
2021/10/29 10:20:34;;;;;;;13.30;10.00;;;16.30;75.60;;;;;;5074727;28;20460;-69
2021/10/29 10:23:05;;;;;;;12.20;9.87;;;16.50;75.10;;;;;;5074512;28;20451;-69
2021/10/29 10:25:42;;;;;;;11.53;9.70;;;16.70;74.00;;;;;;5075261;28;20479;-69
2021/10/29 10:31:14;;;;;;;10.60;9.50;;;17.10;72.70;;;;;;5049682;28;20602;-69
2021/10/29 10:42:34;;;;;;;10.67;8.70;;;17.60;70.60;;;;;;5074207;28;20615;-69
2021/10/29 10:45:05;;;;;;;10.47;9.17;;;17.80;70.60;;;;;;5074014;28;20429;-69
2021/10/29 10:47:35;;;;;;;11.43;8.77;;;18.00;70.60;;;;;;5074155;28;20433;-69
2021/10/29 10:50:10;;;;;;;9.23;8.03;;;18.20;70.40;;;;;;5073979;28;20425;-69
2021/10/29 10:53:16;;;;;;;11.00;8.03;;;18.40;69.80;;;;;;5074015;28;20429;-69
2021/10/29 10:56:20;;;;;;;14.77;8.73;;;18.80;68.70;;;;;;5073976;28;20440;-69
2021/10/29 10:59:11;;;;;;;9.40;7.70;;;19.40;66.70;;;;;;5073938;28;20435;-69
2021/10/29 11:04:47;;;;;;;7.80;6.97;;;20.70;60.70;;;;;;5073961;28;20492;-69
2021/10/29 11:10:15;;;;;;;8.03;6.50;;;22.10;55.90;;;;;;5071904;28;20453;-69
2021/10/29 11:13:09;;;;;;;9.83;7.07;;;22.50;54.40;;;;;;5073445;28;20802;-70
2021/10/29 11:15:36;;;;;;;8.80;7.47;;;22.60;53.00;;;;;;5073930;28;20441;-70
2021/10/29 11:18:19;;;;;;;7.77;7.03;;;22.70;53.00;;;;;;5073615;28;20437;-70
2021/10/29 11:20:47;;;;;;;8.50;6.50;;;22.70;52.10;;;;;;5073133;28;20460;-70
2021/10/29 11:23:20;;;;;;;13.43;7.17;;;22.50;52.30;;;;;;5073130;28;20451;-70
2021/10/29 11:25:52;;;;;;;7.70;6.90;;;22.20;52.90;;;;;;5073557;28;20469;-70
2021/10/29 11:28:25;;;;;;;7.47;6.53;;;22.00;53.40;;;;;;5073234;28;20449;-70
2021/10/29 11:30:55;;;;;;;6.80;6.10;;;21.80;53.50;;;;;;5073116;28;20571;-70
2021/10/29 11:33:24;;;;;;;8.03;7.23;;;21.50;54.30;;;;;;5073480;28;20425;-70
2021/10/29 11:36:02;;;;;;;10.20;6.40;;;21.20;54.40;;;;;;5073457;28;20448;-70
2021/10/29 11:38:30;;;;;;;7.67;6.57;;;21.00;55.30;;;;;;5073499;28;20532;-69
2021/10/29 11:40:57;;;;;;;10.67;6.50;;;20.70;55.70;;;;;;5073376;28;20548;-69
2021/10/29 11:43:27;;;;;;;9.43;5.70;;;20.50;56.20;;;;;;5073535;28;20445;-69
2021/10/29 11:45:55;;;;;;;8.23;6.40;;;20.40;56.70;;;;;;5073349;28;20864;-70
2021/10/29 11:48:22;;;;;;;9.20;5.73;;;20.50;57.00;;;;;;5073786;28;20449;-69
2021/10/29 11:51:02;;;;;;;7.47;6.57;;;20.50;57.00;;;;;;5073098;28;20465;-69
2021/10/29 11:53:29;;;;;;;7.03;6.33;;;20.60;56.40;;;;;;5073337;28;20428;-69
2021/10/29 11:56:01;;;;;;;8.63;5.93;;;20.50;55.80;;;;;;5073331;28;20448;-69
2021/10/29 11:58:41;;;;;;;9.03;6.70;;;20.40;56.10;;;;;;5073273;28;20436;-69
2021/10/29 12:01:15;;;;;;;8.83;6.80;;;20.30;56.30;;;;;;5073262;28;20468;-69
2021/10/29 12:09:27;;;;;;;12.53;5.40;;;20.10;57.30;;;;;;5073204;28;20409;-69
2021/10/29 12:11:55;;;;;;;7.30;5.30;;;20.00;58.20;;;;;;5075245;28;20472;-70
2021/10/29 12:14:30;;;;;;;8.67;5.57;;;20.00;58.80;;;;;;5073505;28;20452;-69
2021/10/29 12:17:01;;;;;;;13.50;5.80;;;19.90;58.40;;;;;;5073206;28;20458;-69
2021/10/29 12:19:28;;;;;;;7.53;5.87;;;19.70;58.30;;;;;;5073410;28;20812;-70
2021/10/29 12:22:05;;;;;;;6.47;5.77;;;19.50;59.10;;;;;;5073265;28;20468;-70
2021/10/29 12:24:34;;;;;;;6.60;5.70;;;19.50;59.90;;;;;;5073013;28;20497;-70
2021/10/29 12:27:03;;;;;;;9.40;6.07;;;19.30;60.60;;;;;;5072806;28;20533;-70
2021/10/29 12:29:33;;;;;;;8.63;5.40;;;19.20;61.40;;;;;;5072776;28;20452;-70
2021/10/29 12:37:47;;;;;;;6.57;4.37;;;19.10;62.40;;;;;;5053785;28;20851;-70
2021/10/29 13:02:56;;;;;;;4.77;2.60;;;21.00;58.00;;;;;;5075665;28;20451;-71
2021/10/29 13:05:22;;;;;;;5.03;2.37;;;22.20;53.30;;;;;;5076391;28;20539;-71
2021/10/29 13:07:49;;;;;;;8.10;2.60;;;23.20;52.50;;;;;;5076616;28;20487;-70
2021/10/29 13:10:16;;;;;;;8.77;2.67;;;24.10;51.10;;;;;;5076148;28;20461;-70
2021/10/29 13:12:52;;;;;;;3.47;2.63;;;25.00;47.30;;;;;;5075942;28;20468;-70
2021/10/29 13:15:20;;;;;;;7.30;2.33;;;25.80;47.30;;;;;;5075911;28;20439;-70
2021/10/29 13:17:53;;;;;;;5.57;2.97;;;26.40;43.20;;;;;;5075831;28;20451;-70
2021/10/29 13:20:42;;;;;;;3.43;2.23;;;26.80;41.90;;;;;;5075743;28;20478;-70
2021/10/29 13:23:40;;;;;;;2.80;2.10;;;26.90;41.10;;;;;;5075793;28;20439;-70
2021/10/29 13:28:58;;;;;;;5.37;2.90;;;26.60;39.00;;;;;;5071512;28;20949;-70
2021/10/29 13:34:27;;;;;;;2.93;2.30;;;26.60;39.00;;;;;;5075839;28;20439;-70
2021/10/29 13:36:59;;;;;;;2.43;2.27;;;26.50;38.70;;;;;;5075526;28;20428;-70
2021/10/29 13:51:15;;;;;;;4.93;2.90;;;26.10;38.50;;;;;;5013484;28;20535;-69
2021/10/29 13:54:05;;;;;;;4.60;2.77;;;26.00;38.40;;;;;;5053115;28;20440;-69
2021/10/29 13:56:45;;;;;;;4.03;2.80;;;25.90;38.80;;;;;;5075107;28;20437;-69
2021/10/29 13:59:40;;;;;;;5.90;2.70;;;25.80;38.80;;;;;;5074731;28;20424;-69
2021/10/29 14:02:26;;;;;;;5.40;3.10;;;25.70;38.80;;;;;;5074791;28;20464;-69
2021/10/29 14:29:35;;;;;;;6.07;3.03;;;23.20;43.20;;;;;;5074453;28;20448;-69
2021/10/29 14:32:07;;;;;;;3.70;2.63;;;22.70;44.50;;;;;;5074321;28;20970;-69
2021/10/29 14:34:37;;;;;;;2.77;2.57;;;22.20;45.70;;;;;;5074049;28;20907;-69
2021/10/29 14:37:13;;;;;;;3.73;2.27;;;21.80;46.60;;;;;;5073971;28;20502;-69
2021/10/29 14:39:46;;;;;;;2.30;2.10;;;21.40;47.70;;;;;;5074309;28;20846;-68
2021/10/29 14:42:21;;;;;;;3.53;2.50;;;21.00;48.30;;;;;;5074416;28;20468;-68
2021/10/29 14:44:49;;;;;;;2.87;2.67;;;20.70;49.10;;;;;;5073926;28;20809;-68
2021/10/29 14:47:25;;;;;;;5.13;3.10;;;20.50;49.90;;;;;;5073732;28;20464;-69
2021/10/29 14:50:08;;;;;;;3.17;2.90;;;20.30;50.70;;;;;;5074341;28;20432;-68
2021/10/29 14:53:08;;;;;;;3.60;2.80;;;20.10;50.90;;;;;;5073588;28;20927;-69
2021/10/29 15:01:31;;;;;;;9.67;3.33;;;19.70;52.90;;;;;;5073844;28;20520;-69
2021/10/29 15:06:56;;;;;;;5.43;2.83;;;19.50;53.80;;;;;;5071722;28;20471;-68
2021/10/29 15:15:28;;;;;;;8.50;3.20;;;19.30;54.50;;;;;;5073507;28;20408;-68
2021/10/29 15:18:04;;;;;;;8.17;2.80;;;19.20;54.50;;;;;;5073279;28;20515;-69
2021/10/29 15:28:46;;;;;;;4.10;3.00;;;18.90;56.00;;;;;;5050921;28;20210;-73
2021/10/29 15:31:28;;;;;;;6.47;4.53;;;18.80;56.00;;;;;;5073212;28;20480;-73
2021/10/29 15:42:23;;;;;;;5.27;3.43;;;18.50;57.10;;;;;;5074147;28;21051;-72
2021/10/29 15:44:58;;;;;;;6.33;3.70;;;18.40;57.40;;;;;;5073060;28;20898;-73
2021/10/29 15:47:35;;;;;;;9.20;4.80;;;18.30;58.00;;;;;;5073293;28;20518;-73
2021/10/29 15:50:06;;;;;;;4.87;3.70;;;18.30;58.20;;;;;;5073370;28;20464;-71
2021/10/29 15:52:36;;;;;;;5.10;3.87;;;18.30;58.10;;;;;;5073330;28;20490;-71
2021/10/29 15:55:21;;;;;;;9.50;4.10;;;18.30;58.40;;;;;;5073226;28;20543;-71
2021/10/29 15:57:58;;;;;;;5.10;3.70;;;18.20;58.30;;;;;;5073260;28;20850;-71
2021/10/29 16:00:36;;;;;;;5.20;4.10;;;18.10;58.40;;;;;;5072542;28;20460;-71
2021/10/29 16:03:11;;;;;;;7.10;3.67;;;18.00;58.50;;;;;;5073123;28;20795;-71